sensor_id;sensor_type;location;lat;lon;timestamp;temperature;humidity
57843;DHT22;43673;51.058;3.734;2022-10-23T00:06:47;15.20;99.90
57843;DHT22;43673;51.058;3.734;2022-10-23T00:09:15;15.30;99.90
57843;DHT22;43673;51.058;3.734;2022-10-23T00:11:42;15.20;99.90
57843;DHT22;43673;51.058;3.734;2022-10-23T00:14:09;15.10;99.90
57843;DHT22;43673;51.058;3.734;2022-10-23T00:16:35;15.10;99.90
57843;DHT22;43673;51.058;3.734;2022-10-23T00:19:01;15.10;99.90
57843;DHT22;43673;51.058;3.734;2022-10-23T00:21:28;15.20;99.90
57843;DHT22;43673;51.058;3.734;2022-10-23T00:23:54;15.10;99.90
57843;DHT22;43673;51.058;3.734;2022-10-23T00:26:19;14.90;99.90
57843;DHT22;43673;51.058;3.734;2022-10-23T00:28:48;15.00;99.90
57843;DHT22;43673;51.058;3.734;2022-10-23T00:31:14;15.00;99.90
57843;DHT22;43673;51.058;3.734;2022-10-23T00:33:41;15.00;99.90
57843;DHT22;43673;51.058;3.734;2022-10-23T00:36:11;15.00;99.90
57843;DHT22;43673;51.058;3.734;2022-10-23T00:38:38;15.10;99.90
57843;DHT22;43673;51.058;3.734;2022-10-23T00:48:48;15.30;99.90
57843;DHT22;43673;51.058;3.734;2022-10-23T00:51:38;15.20;99.90
57843;DHT22;43673;51.058;3.734;2022-10-23T00:54:06;15.20;99.90
57843;DHT22;43673;51.058;3.734;2022-10-23T00:59:10;15.10;99.90
57843;DHT22;43673;51.058;3.734;2022-10-23T01:01:39;15.20;99.90
57843;DHT22;43673;51.058;3.734;2022-10-23T01:04:06;15.20;99.90
57843;DHT22;43673;51.058;3.734;2022-10-23T01:12:43;15.30;99.90
57843;DHT22;43673;51.058;3.734;2022-10-23T01:18:06;15.30;99.90
57843;DHT22;43673;51.058;3.734;2022-10-23T01:20:42;15.50;99.90
57843;DHT22;43673;51.058;3.734;2022-10-23T01:26:33;15.50;99.90
57843;DHT22;43673;51.058;3.734;2022-10-23T01:32:02;15.50;99.90
57843;DHT22;43673;51.058;3.734;2022-10-23T01:34:34;15.50;99.90
57843;DHT22;43673;51.058;3.734;2022-10-23T01:37:03;15.40;99.90
57843;DHT22;43673;51.058;3.734;2022-10-23T01:39:40;15.30;99.90
57843;DHT22;43673;51.058;3.734;2022-10-23T01:42:14;15.50;99.90
57843;DHT22;43673;51.058;3.734;2022-10-23T01:44:48;15.50;99.90
57843;DHT22;43673;51.058;3.734;2022-10-23T01:47:17;15.60;99.90
57843;DHT22;43673;51.058;3.734;2022-10-23T01:49:47;15.50;99.90
57843;DHT22;43673;51.058;3.734;2022-10-23T01:52:17;15.50;99.90
57843;DHT22;43673;51.058;3.734;2022-10-23T01:54:45;15.50;99.90
57843;DHT22;43673;51.058;3.734;2022-10-23T01:57:15;15.60;99.90
57843;DHT22;43673;51.058;3.734;2022-10-23T01:59:49;15.50;99.90
57843;DHT22;43673;51.058;3.734;2022-10-23T02:02:16;15.60;99.90
57843;DHT22;43673;51.058;3.734;2022-10-23T02:04:54;15.60;99.90
57843;DHT22;43673;51.058;3.734;2022-10-23T02:07:22;15.60;99.90
57843;DHT22;43673;51.058;3.734;2022-10-23T02:09:53;15.70;99.90
57843;DHT22;43673;51.058;3.734;2022-10-23T02:12:37;15.70;99.90
57843;DHT22;43673;51.058;3.734;2022-10-23T02:15:12;15.70;99.90
57843;DHT22;43673;51.058;3.734;2022-10-23T02:17:50;15.90;99.90
57843;DHT22;43673;51.058;3.734;2022-10-23T02:20:28;15.70;99.90
57843;DHT22;43673;51.058;3.734;2022-10-23T02:25:38;15.70;99.90
57843;DHT22;43673;51.058;3.734;2022-10-23T02:28:09;15.60;99.90
57843;DHT22;43673;51.058;3.734;2022-10-23T02:30:41;15.70;99.90
57843;DHT22;43673;51.058;3.734;2022-10-23T02:33:13;15.60;99.90
57843;DHT22;43673;51.058;3.734;2022-10-23T02:35:44;15.70;99.90
57843;DHT22;43673;51.058;3.734;2022-10-23T02:41:30;15.70;99.90
57843;DHT22;43673;51.058;3.734;2022-10-23T02:50:22;15.60;99.90
57843;DHT22;43673;51.058;3.734;2022-10-23T02:53:04;15.70;99.90
57843;DHT22;43673;51.058;3.734;2022-10-23T03:01:37;15.80;99.90
57843;DHT22;43673;51.058;3.734;2022-10-23T03:04:05;15.80;99.90
57843;DHT22;43673;51.058;3.734;2022-10-23T03:06:46;15.60;99.90
57843;DHT22;43673;51.058;3.734;2022-10-23T03:09:17;15.90;99.90
57843;DHT22;43673;51.058;3.734;2022-10-23T03:11:48;15.80;99.90
57843;DHT22;43673;51.058;3.734;2022-10-23T03:14:19;15.80;99.90
57843;DHT22;43673;51.058;3.734;2022-10-23T03:16:52;15.80;99.90
57843;DHT22;43673;51.058;3.734;2022-10-23T03:37:30;15.70;99.90
57843;DHT22;43673;51.058;3.734;2022-10-23T03:39:58;15.70;99.90
57843;DHT22;43673;51.058;3.734;2022-10-23T03:42:26;15.70;99.90
57843;DHT22;43673;51.058;3.734;2022-10-23T03:44:56;15.70;99.90
57843;DHT22;43673;51.058;3.734;2022-10-23T03:47:29;15.60;99.90
57843;DHT22;43673;51.058;3.734;2022-10-23T03:50:09;15.70;99.90
57843;DHT22;43673;51.058;3.734;2022-10-23T03:52:41;15.50;99.90
57843;DHT22;43673;51.058;3.734;2022-10-23T03:55:16;15.50;99.90
57843;DHT22;43673;51.058;3.734;2022-10-23T03:58:08;15.50;99.90
57843;DHT22;43673;51.058;3.734;2022-10-23T04:00:35;15.50;99.90
57843;DHT22;43673;51.058;3.734;2022-10-23T04:03:13;15.50;99.90
57843;DHT22;43673;51.058;3.734;2022-10-23T04:05:45;15.50;99.90
57843;DHT22;43673;51.058;3.734;2022-10-23T04:08:14;15.50;99.90
57843;DHT22;43673;51.058;3.734;2022-10-23T04:10:50;15.60;99.90
57843;DHT22;43673;51.058;3.734;2022-10-23T04:13:21;15.60;99.90
57843;DHT22;43673;51.058;3.734;2022-10-23T04:15:52;15.50;99.90
57843;DHT22;43673;51.058;3.734;2022-10-23T04:18:18;15.40;99.90
57843;DHT22;43673;51.058;3.734;2022-10-23T04:20:48;15.50;99.90
57843;DHT22;43673;51.058;3.734;2022-10-23T04:23:15;15.60;99.90
57843;DHT22;43673;51.058;3.734;2022-10-23T04:25:56;15.40;99.90
57843;DHT22;43673;51.058;3.734;2022-10-23T04:28:22;15.50;99.90
57843;DHT22;43673;51.058;3.734;2022-10-23T04:30:53;15.40;99.90
57843;DHT22;43673;51.058;3.734;2022-10-23T04:33:35;15.40;99.90
57843;DHT22;43673;51.058;3.734;2022-10-23T04:36:06;15.40;99.90
57843;DHT22;43673;51.058;3.734;2022-10-23T04:38:32;15.40;99.90
57843;DHT22;43673;51.058;3.734;2022-10-23T04:41:30;15.20;99.90
57843;DHT22;43673;51.058;3.734;2022-10-23T04:43:59;15.20;99.90
57843;DHT22;43673;51.058;3.734;2022-10-23T04:46:31;15.20;99.90
57843;DHT22;43673;51.058;3.734;2022-10-23T04:49:02;15.20;99.90
57843;DHT22;43673;51.058;3.734;2022-10-23T04:51:32;15.20;99.90
57843;DHT22;43673;51.058;3.734;2022-10-23T04:54:05;15.30;99.90
57843;DHT22;43673;51.058;3.734;2022-10-23T04:59:18;15.30;99.90
57843;DHT22;43673;51.058;3.734;2022-10-23T05:01:51;15.30;99.90
57843;DHT22;43673;51.058;3.734;2022-10-23T05:04:31;15.30;99.90
57843;DHT22;43673;51.058;3.734;2022-10-23T05:06:57;15.30;99.90
57843;DHT22;43673;51.058;3.734;2022-10-23T05:09:38;15.30;99.90
57843;DHT22;43673;51.058;3.734;2022-10-23T05:12:10;15.30;99.90
57843;DHT22;43673;51.058;3.734;2022-10-23T05:14:45;15.30;99.90
57843;DHT22;43673;51.058;3.734;2022-10-23T05:17:27;15.30;99.90
57843;DHT22;43673;51.058;3.734;2022-10-23T05:20:40;15.30;99.90
57843;DHT22;43673;51.058;3.734;2022-10-23T05:23:26;15.30;99.90
57843;DHT22;43673;51.058;3.734;2022-10-23T05:26:05;15.40;99.90
57843;DHT22;43673;51.058;3.734;2022-10-23T05:28:40;15.40;99.90
57843;DHT22;43673;51.058;3.734;2022-10-23T05:31:18;15.40;99.90
57843;DHT22;43673;51.058;3.734;2022-10-23T05:34:01;15.30;99.90
57843;DHT22;43673;51.058;3.734;2022-10-23T05:36:47;15.30;99.90
57843;DHT22;43673;51.058;3.734;2022-10-23T05:39:14;15.20;99.90
57843;DHT22;43673;51.058;3.734;2022-10-23T05:45:18;15.10;99.90
57843;DHT22;43673;51.058;3.734;2022-10-23T05:48:51;15.30;99.90
57843;DHT22;43673;51.058;3.734;2022-10-23T05:51:40;15.40;99.90
57843;DHT22;43673;51.058;3.734;2022-10-23T05:54:34;15.40;99.90
57843;DHT22;43673;51.058;3.734;2022-10-23T05:57:24;15.40;99.90
57843;DHT22;43673;51.058;3.734;2022-10-23T05:59:58;15.40;99.90
57843;DHT22;43673;51.058;3.734;2022-10-23T06:02:48;15.40;99.90
57843;DHT22;43673;51.058;3.734;2022-10-23T06:05:42;15.40;99.90
57843;DHT22;43673;51.058;3.734;2022-10-23T06:11:46;15.40;99.90
57843;DHT22;43673;51.058;3.734;2022-10-23T06:24:12;15.40;99.90
57843;DHT22;43673;51.058;3.734;2022-10-23T06:27:15;15.20;99.90
57843;DHT22;43673;51.058;3.734;2022-10-23T06:29:58;15.10;99.90
57843;DHT22;43673;51.058;3.734;2022-10-23T06:32:44;15.30;99.90
57843;DHT22;43673;51.058;3.734;2022-10-23T06:39:22;15.20;99.90
57843;DHT22;43673;51.058;3.734;2022-10-23T06:41:50;15.30;99.90
57843;DHT22;43673;51.058;3.734;2022-10-23T06:44:16;15.40;99.90
57843;DHT22;43673;51.058;3.734;2022-10-23T06:46:52;15.40;99.90
57843;DHT22;43673;51.058;3.734;2022-10-23T06:49:27;15.40;99.90
57843;DHT22;43673;51.058;3.734;2022-10-23T06:52:06;15.50;99.90
57843;DHT22;43673;51.058;3.734;2022-10-23T06:54:32;15.60;99.90
57843;DHT22;43673;51.058;3.734;2022-10-23T06:56:58;15.50;99.90
57843;DHT22;43673;51.058;3.734;2022-10-23T06:59:25;15.50;99.90
57843;DHT22;43673;51.058;3.734;2022-10-23T07:01:51;15.50;99.90
57843;DHT22;43673;51.058;3.734;2022-10-23T07:04:17;15.50;99.90
57843;DHT22;43673;51.058;3.734;2022-10-23T07:06:43;15.50;99.90
57843;DHT22;43673;51.058;3.734;2022-10-23T07:09:09;15.60;99.90
57843;DHT22;43673;51.058;3.734;2022-10-23T07:11:36;15.70;99.90
57843;DHT22;43673;51.058;3.734;2022-10-23T07:14:02;15.70;99.90
57843;DHT22;43673;51.058;3.734;2022-10-23T07:16:28;15.70;99.90
57843;DHT22;43673;51.058;3.734;2022-10-23T07:18:57;15.50;99.90
57843;DHT22;43673;51.058;3.734;2022-10-23T07:21:54;15.80;99.90
57843;DHT22;43673;51.058;3.734;2022-10-23T07:24:20;15.80;99.90
57843;DHT22;43673;51.058;3.734;2022-10-23T07:26:46;15.80;99.90
57843;DHT22;43673;51.058;3.734;2022-10-23T07:29:12;15.70;99.90
57843;DHT22;43673;51.058;3.734;2022-10-23T07:31:38;15.70;99.90
57843;DHT22;43673;51.058;3.734;2022-10-23T07:34:04;15.70;99.90
57843;DHT22;43673;51.058;3.734;2022-10-23T07:36:31;15.80;99.90
57843;DHT22;43673;51.058;3.734;2022-10-23T07:38:58;15.80;99.90
57843;DHT22;43673;51.058;3.734;2022-10-23T07:41:24;15.80;99.90
57843;DHT22;43673;51.058;3.734;2022-10-23T07:43:49;15.70;99.90
57843;DHT22;43673;51.058;3.734;2022-10-23T07:46:15;15.70;99.90
57843;DHT22;43673;51.058;3.734;2022-10-23T07:48:41;15.80;99.90
57843;DHT22;43673;51.058;3.734;2022-10-23T07:51:14;15.90;99.90
57843;DHT22;43673;51.058;3.734;2022-10-23T07:53:41;16.00;99.90
57843;DHT22;43673;51.058;3.734;2022-10-23T07:58:40;16.30;99.90
57843;DHT22;43673;51.058;3.734;2022-10-23T08:01:17;16.20;99.90
57843;DHT22;43673;51.058;3.734;2022-10-23T08:03:44;16.30;99.90
57843;DHT22;43673;51.058;3.734;2022-10-23T08:06:10;16.30;99.90
57843;DHT22;43673;51.058;3.734;2022-10-23T08:08:37;16.30;99.90
57843;DHT22;43673;51.058;3.734;2022-10-23T08:11:03;16.40;99.90
57843;DHT22;43673;51.058;3.734;2022-10-23T08:13:30;16.40;99.90
57843;DHT22;43673;51.058;3.734;2022-10-23T08:15:55;16.50;99.90
57843;DHT22;43673;51.058;3.734;2022-10-23T08:18:23;16.60;99.90
57843;DHT22;43673;51.058;3.734;2022-10-23T08:20:58;16.60;99.90
57843;DHT22;43673;51.058;3.734;2022-10-23T08:23:24;16.60;99.90
57843;DHT22;43673;51.058;3.734;2022-10-23T08:26:00;16.50;99.90
57843;DHT22;43673;51.058;3.734;2022-10-23T08:28:49;16.80;99.90
57843;DHT22;43673;51.058;3.734;2022-10-23T08:31:17;16.80;99.90
57843;DHT22;43673;51.058;3.734;2022-10-23T08:33:44;16.80;99.90
57843;DHT22;43673;51.058;3.734;2022-10-23T08:36:20;16.90;99.90
57843;DHT22;43673;51.058;3.734;2022-10-23T08:38:50;16.80;99.90
57843;DHT22;43673;51.058;3.734;2022-10-23T08:41:39;16.80;99.90
57843;DHT22;43673;51.058;3.734;2022-10-23T08:52:40;17.00;99.90
57843;DHT22;43673;51.058;3.734;2022-10-23T09:00:57;17.00;99.90
57843;DHT22;43673;51.058;3.734;2022-10-23T09:03:23;17.00;99.90
57843;DHT22;43673;51.058;3.734;2022-10-23T09:06:14;17.00;99.90
57843;DHT22;43673;51.058;3.734;2022-10-23T09:09:07;17.10;99.90
57843;DHT22;43673;51.058;3.734;2022-10-23T09:11:42;17.00;99.90
57843;DHT22;43673;51.058;3.734;2022-10-23T09:14:39;17.00;99.90
57843;DHT22;43673;51.058;3.734;2022-10-23T09:22:38;17.10;99.90
57843;DHT22;43673;51.058;3.734;2022-10-23T09:25:15;17.20;99.90
57843;DHT22;43673;51.058;3.734;2022-10-23T09:27:47;17.20;99.90
57843;DHT22;43673;51.058;3.734;2022-10-23T09:30:35;17.20;99.90
57843;DHT22;43673;51.058;3.734;2022-10-23T09:33:25;17.40;99.90
57843;DHT22;43673;51.058;3.734;2022-10-23T09:36:00;17.60;99.90
57843;DHT22;43673;51.058;3.734;2022-10-23T09:38:32;17.70;99.90
57843;DHT22;43673;51.058;3.734;2022-10-23T09:41:10;17.80;99.90
57843;DHT22;43673;51.058;3.734;2022-10-23T09:43:40;17.90;99.90
57843;DHT22;43673;51.058;3.734;2022-10-23T09:46:07;18.00;99.90
57843;DHT22;43673;51.058;3.734;2022-10-23T09:48:33;18.10;99.90
57843;DHT22;43673;51.058;3.734;2022-10-23T09:51:03;18.10;99.90
57843;DHT22;43673;51.058;3.734;2022-10-23T09:56:40;17.80;99.90
57843;DHT22;43673;51.058;3.734;2022-10-23T10:01:45;17.90;99.90
57843;DHT22;43673;51.058;3.734;2022-10-23T10:04:15;17.90;99.90
57843;DHT22;43673;51.058;3.734;2022-10-23T10:06:44;18.00;99.90
57843;DHT22;43673;51.058;3.734;2022-10-23T10:09:15;18.10;99.90
57843;DHT22;43673;51.058;3.734;2022-10-23T10:12:09;18.20;99.90
57843;DHT22;43673;51.058;3.734;2022-10-23T10:14:52;18.20;99.90
57843;DHT22;43673;51.058;3.734;2022-10-23T10:17:53;18.30;99.90
57843;DHT22;43673;51.058;3.734;2022-10-23T10:23:46;18.40;99.90
57843;DHT22;43673;51.058;3.734;2022-10-23T10:41:15;18.60;99.90
57843;DHT22;43673;51.058;3.734;2022-10-23T10:44:27;18.80;99.90
57843;DHT22;43673;51.058;3.734;2022-10-23T10:47:22;19.00;99.90
57843;DHT22;43673;51.058;3.734;2022-10-23T10:50:17;19.00;99.90
57843;DHT22;43673;51.058;3.734;2022-10-23T10:55:34;19.10;99.90
57843;DHT22;43673;51.058;3.734;2022-10-23T10:58:19;19.20;99.90
57843;DHT22;43673;51.058;3.734;2022-10-23T11:00:54;19.30;99.90
57843;DHT22;43673;51.058;3.734;2022-10-23T11:03:35;19.40;99.90
57843;DHT22;43673;51.058;3.734;2022-10-23T11:06:07;19.60;99.90
57843;DHT22;43673;51.058;3.734;2022-10-23T11:08:38;19.70;99.90
57843;DHT22;43673;51.058;3.734;2022-10-23T11:11:29;19.90;99.90
57843;DHT22;43673;51.058;3.734;2022-10-23T11:13:57;19.90;99.90
57843;DHT22;43673;51.058;3.734;2022-10-23T11:16:33;20.00;99.90
57843;DHT22;43673;51.058;3.734;2022-10-23T11:19:10;20.10;99.90
57843;DHT22;43673;51.058;3.734;2022-10-23T11:30:21;20.50;99.90
57843;DHT22;43673;51.058;3.734;2022-10-23T11:35:47;20.70;99.90
57843;DHT22;43673;51.058;3.734;2022-10-23T11:40:52;21.00;99.90
57843;DHT22;43673;51.058;3.734;2022-10-23T11:45:57;21.30;99.90
57843;DHT22;43673;51.058;3.734;2022-10-23T11:48:36;21.30;99.90
57843;DHT22;43673;51.058;3.734;2022-10-23T11:51:03;21.30;99.90
57843;DHT22;43673;51.058;3.734;2022-10-23T11:58:51;21.40;99.90
57843;DHT22;43673;51.058;3.734;2022-10-23T12:09:44;21.30;99.90
57843;DHT22;43673;51.058;3.734;2022-10-23T12:14:48;21.40;99.90
57843;DHT22;43673;51.058;3.734;2022-10-23T12:22:16;21.60;99.90
57843;DHT22;43673;51.058;3.734;2022-10-23T12:25:11;21.60;99.90
57843;DHT22;43673;51.058;3.734;2022-10-23T12:28:23;21.70;99.90
57843;DHT22;43673;51.058;3.734;2022-10-23T12:31:10;21.60;99.90
57843;DHT22;43673;51.058;3.734;2022-10-23T12:34:02;21.50;99.90
57843;DHT22;43673;51.058;3.734;2022-10-23T12:36:50;21.50;99.90
57843;DHT22;43673;51.058;3.734;2022-10-23T12:41:50;21.70;99.90
57843;DHT22;43673;51.058;3.734;2022-10-23T12:44:15;21.60;99.90
57843;DHT22;43673;51.058;3.734;2022-10-23T12:46:46;21.70;99.90
57843;DHT22;43673;51.058;3.734;2022-10-23T12:49:21;21.70;99.90
57843;DHT22;43673;51.058;3.734;2022-10-23T12:54:23;21.60;99.90
57843;DHT22;43673;51.058;3.734;2022-10-23T12:56:49;21.60;99.90
57843;DHT22;43673;51.058;3.734;2022-10-23T12:59:16;21.70;99.90
57843;DHT22;43673;51.058;3.734;2022-10-23T13:01:43;21.70;99.90
57843;DHT22;43673;51.058;3.734;2022-10-23T13:04:26;21.70;99.90
57843;DHT22;43673;51.058;3.734;2022-10-23T13:06:54;21.50;99.90
57843;DHT22;43673;51.058;3.734;2022-10-23T13:09:38;21.60;99.90
57843;DHT22;43673;51.058;3.734;2022-10-23T13:12:08;21.60;99.90
57843;DHT22;43673;51.058;3.734;2022-10-23T13:22:45;21.90;99.90
57843;DHT22;43673;51.058;3.734;2022-10-23T13:27:46;22.00;99.90
57843;DHT22;43673;51.058;3.734;2022-10-23T13:30:39;22.00;99.90
57843;DHT22;43673;51.058;3.734;2022-10-23T13:33:34;22.00;99.90
57843;DHT22;43673;51.058;3.734;2022-10-23T13:36:23;22.20;99.90
57843;DHT22;43673;51.058;3.734;2022-10-23T13:41:44;22.20;99.90
57843;DHT22;43673;51.058;3.734;2022-10-23T13:44:18;22.30;99.90
57843;DHT22;43673;51.058;3.734;2022-10-23T13:46:44;22.30;99.90
57843;DHT22;43673;51.058;3.734;2022-10-23T13:49:10;22.30;99.90
57843;DHT22;43673;51.058;3.734;2022-10-23T13:51:40;22.40;99.90
57843;DHT22;43673;51.058;3.734;2022-10-23T13:54:13;22.40;99.90
57843;DHT22;43673;51.058;3.734;2022-10-23T13:56:39;22.20;99.90
57843;DHT22;43673;51.058;3.734;2022-10-23T13:59:04;22.10;99.90
57843;DHT22;43673;51.058;3.734;2022-10-23T14:01:34;22.00;99.90
57843;DHT22;43673;51.058;3.734;2022-10-23T14:04:02;21.90;99.90
57843;DHT22;43673;51.058;3.734;2022-10-23T14:06:32;21.90;99.90
57843;DHT22;43673;51.058;3.734;2022-10-23T14:08:58;21.90;99.90
57843;DHT22;43673;51.058;3.734;2022-10-23T14:11:24;21.80;99.90
57843;DHT22;43673;51.058;3.734;2022-10-23T14:13:50;21.80;99.90
57843;DHT22;43673;51.058;3.734;2022-10-23T14:16:18;21.90;99.90
57843;DHT22;43673;51.058;3.734;2022-10-23T14:18:45;21.90;99.90
57843;DHT22;43673;51.058;3.734;2022-10-23T14:21:14;21.90;99.90
57843;DHT22;43673;51.058;3.734;2022-10-23T14:23:39;21.80;99.90
57843;DHT22;43673;51.058;3.734;2022-10-23T14:26:08;21.80;99.90
57843;DHT22;43673;51.058;3.734;2022-10-23T14:28:34;21.80;99.90
57843;DHT22;43673;51.058;3.734;2022-10-23T14:31:11;21.80;99.90
57843;DHT22;43673;51.058;3.734;2022-10-23T14:33:38;21.70;99.90
57843;DHT22;43673;51.058;3.734;2022-10-23T14:36:04;21.50;99.90
57843;DHT22;43673;51.058;3.734;2022-10-23T14:38:30;21.60;99.90
57843;DHT22;43673;51.058;3.734;2022-10-23T14:40:56;21.40;99.90
57843;DHT22;43673;51.058;3.734;2022-10-23T14:43:23;21.30;99.90
57843;DHT22;43673;51.058;3.734;2022-10-23T14:45:48;21.30;99.90
57843;DHT22;43673;51.058;3.734;2022-10-23T14:48:14;21.20;99.90
57843;DHT22;43673;51.058;3.734;2022-10-23T14:50:45;21.10;99.90
57843;DHT22;43673;51.058;3.734;2022-10-23T14:53:11;21.10;99.90
57843;DHT22;43673;51.058;3.734;2022-10-23T14:55:36;21.10;99.90
57843;DHT22;43673;51.058;3.734;2022-10-23T14:58:02;21.10;99.90
57843;DHT22;43673;51.058;3.734;2022-10-23T15:00:28;21.10;99.90
57843;DHT22;43673;51.058;3.734;2022-10-23T15:02:54;21.10;99.90
57843;DHT22;43673;51.058;3.734;2022-10-23T15:05:19;21.20;99.90
57843;DHT22;43673;51.058;3.734;2022-10-23T15:07:45;21.20;99.90
57843;DHT22;43673;51.058;3.734;2022-10-23T15:10:11;21.10;99.90
57843;DHT22;43673;51.058;3.734;2022-10-23T15:12:37;21.10;99.90
57843;DHT22;43673;51.058;3.734;2022-10-23T15:15:04;21.10;99.90
57843;DHT22;43673;51.058;3.734;2022-10-23T15:17:30;21.10;99.90
57843;DHT22;43673;51.058;3.734;2022-10-23T15:19:58;21.20;99.90
57843;DHT22;43673;51.058;3.734;2022-10-23T15:22:24;21.30;99.90
57843;DHT22;43673;51.058;3.734;2022-10-23T15:24:50;21.30;99.90
57843;DHT22;43673;51.058;3.734;2022-10-23T15:27:16;21.40;99.90
57843;DHT22;43673;51.058;3.734;2022-10-23T15:29:42;21.50;99.90
57843;DHT22;43673;51.058;3.734;2022-10-23T15:32:09;21.60;99.90
57843;DHT22;43673;51.058;3.734;2022-10-23T15:34:35;21.60;99.90
57843;DHT22;43673;51.058;3.734;2022-10-23T15:37:03;21.50;99.90
57843;DHT22;43673;51.058;3.734;2022-10-23T15:39:30;21.50;99.90
57843;DHT22;43673;51.058;3.734;2022-10-23T15:42:00;21.50;99.90
57843;DHT22;43673;51.058;3.734;2022-10-23T15:44:28;21.50;99.90
57843;DHT22;43673;51.058;3.734;2022-10-23T15:46:55;21.40;99.90
57843;DHT22;43673;51.058;3.734;2022-10-23T15:49:22;21.40;99.90
57843;DHT22;43673;51.058;3.734;2022-10-23T15:51:50;21.20;99.90
57843;DHT22;43673;51.058;3.734;2022-10-23T15:54:17;21.10;99.90
57843;DHT22;43673;51.058;3.734;2022-10-23T15:56:51;21.00;99.90
57843;DHT22;43673;51.058;3.734;2022-10-23T15:59:19;21.00;99.90
57843;DHT22;43673;51.058;3.734;2022-10-23T16:01:45;20.90;99.90
57843;DHT22;43673;51.058;3.734;2022-10-23T16:04:11;20.80;99.90
57843;DHT22;43673;51.058;3.734;2022-10-23T16:06:37;20.70;99.90
57843;DHT22;43673;51.058;3.734;2022-10-23T16:09:03;20.60;99.90
57843;DHT22;43673;51.058;3.734;2022-10-23T16:11:33;20.60;99.90
57843;DHT22;43673;51.058;3.734;2022-10-23T16:13:59;20.50;99.90
57843;DHT22;43673;51.058;3.734;2022-10-23T16:16:27;20.50;99.90
57843;DHT22;43673;51.058;3.734;2022-10-23T16:18:53;20.30;99.90
57843;DHT22;43673;51.058;3.734;2022-10-23T16:21:21;20.30;99.90
57843;DHT22;43673;51.058;3.734;2022-10-23T16:23:48;20.30;99.90
57843;DHT22;43673;51.058;3.734;2022-10-23T16:26:14;20.20;99.90
57843;DHT22;43673;51.058;3.734;2022-10-23T16:28:40;20.20;99.90
57843;DHT22;43673;51.058;3.734;2022-10-23T16:31:16;20.00;99.90
57843;DHT22;43673;51.058;3.734;2022-10-23T16:33:42;20.00;99.90
57843;DHT22;43673;51.058;3.734;2022-10-23T16:36:08;19.90;99.90
57843;DHT22;43673;51.058;3.734;2022-10-23T16:38:35;20.00;99.90
57843;DHT22;43673;51.058;3.734;2022-10-23T16:41:01;19.90;99.90
57843;DHT22;43673;51.058;3.734;2022-10-23T16:43:28;19.90;99.90
57843;DHT22;43673;51.058;3.734;2022-10-23T16:48:40;20.00;99.90
57843;DHT22;43673;51.058;3.734;2022-10-23T16:51:11;20.00;99.90
57843;DHT22;43673;51.058;3.734;2022-10-23T16:53:38;20.00;99.90
57843;DHT22;43673;51.058;3.734;2022-10-23T16:56:05;20.00;99.90
57843;DHT22;43673;51.058;3.734;2022-10-23T16:58:31;20.00;99.90
57843;DHT22;43673;51.058;3.734;2022-10-23T17:01:12;20.00;99.90
57843;DHT22;43673;51.058;3.734;2022-10-23T17:06:13;20.00;99.90
57843;DHT22;43673;51.058;3.734;2022-10-23T17:08:39;19.90;99.90
57843;DHT22;43673;51.058;3.734;2022-10-23T17:11:08;19.90;99.90
57843;DHT22;43673;51.058;3.734;2022-10-23T17:13:36;19.90;99.90
57843;DHT22;43673;51.058;3.734;2022-10-23T17:16:10;19.90;99.90
57843;DHT22;43673;51.058;3.734;2022-10-23T17:18:37;20.00;99.90
57843;DHT22;43673;51.058;3.734;2022-10-23T17:21:03;20.00;99.90
57843;DHT22;43673;51.058;3.734;2022-10-23T17:23:29;20.00;99.90
57843;DHT22;43673;51.058;3.734;2022-10-23T17:25:55;20.10;99.90
57843;DHT22;43673;51.058;3.734;2022-10-23T17:28:22;20.20;99.90
57843;DHT22;43673;51.058;3.734;2022-10-23T17:30:48;20.20;99.90
57843;DHT22;43673;51.058;3.734;2022-10-23T17:33:14;20.20;99.90
57843;DHT22;43673;51.058;3.734;2022-10-23T17:35:39;20.30;99.90
57843;DHT22;43673;51.058;3.734;2022-10-23T17:38:05;20.30;99.90
57843;DHT22;43673;51.058;3.734;2022-10-23T17:40:31;20.40;99.90
57843;DHT22;43673;51.058;3.734;2022-10-23T17:42:58;20.40;99.90
57843;DHT22;43673;51.058;3.734;2022-10-23T17:45:24;20.40;99.90
57843;DHT22;43673;51.058;3.734;2022-10-23T17:47:51;20.40;99.90
57843;DHT22;43673;51.058;3.734;2022-10-23T17:50:17;20.40;99.90
57843;DHT22;43673;51.058;3.734;2022-10-23T17:52:44;20.40;99.90
57843;DHT22;43673;51.058;3.734;2022-10-23T17:55:09;20.20;99.90
57843;DHT22;43673;51.058;3.734;2022-10-23T17:57:35;20.30;99.90
57843;DHT22;43673;51.058;3.734;2022-10-23T18:00:02;20.30;99.90
57843;DHT22;43673;51.058;3.734;2022-10-23T18:02:29;20.20;99.90
57843;DHT22;43673;51.058;3.734;2022-10-23T18:04:55;20.10;99.90
57843;DHT22;43673;51.058;3.734;2022-10-23T18:07:37;20.00;99.90
57843;DHT22;43673;51.058;3.734;2022-10-23T18:10:29;20.00;99.90
57843;DHT22;43673;51.058;3.734;2022-10-23T18:13:07;19.90;99.90
57843;DHT22;43673;51.058;3.734;2022-10-23T18:15:48;20.10;99.90
57843;DHT22;43673;51.058;3.734;2022-10-23T18:18:16;19.80;99.90
57843;DHT22;43673;51.058;3.734;2022-10-23T18:20:44;19.80;99.90
57843;DHT22;43673;51.058;3.734;2022-10-23T18:26:00;19.70;99.90
57843;DHT22;43673;51.058;3.734;2022-10-23T18:34:31;19.50;99.90
57843;DHT22;43673;51.058;3.734;2022-10-23T18:44:05;19.40;99.90
57843;DHT22;43673;51.058;3.734;2022-10-23T18:46:35;19.40;99.90
57843;DHT22;43673;51.058;3.734;2022-10-23T18:49:11;19.40;99.90
57843;DHT22;43673;51.058;3.734;2022-10-23T18:52:08;19.40;99.90
57843;DHT22;43673;51.058;3.734;2022-10-23T18:57:20;19.10;99.90
57843;DHT22;43673;51.058;3.734;2022-10-23T18:59:57;19.10;99.90
57843;DHT22;43673;51.058;3.734;2022-10-23T19:20:30;18.60;99.90
57843;DHT22;43673;51.058;3.734;2022-10-23T19:30:00;18.40;99.90
57843;DHT22;43673;51.058;3.734;2022-10-23T19:32:42;18.10;99.90
57843;DHT22;43673;51.058;3.734;2022-10-23T19:35:10;18.10;99.90
57843;DHT22;43673;51.058;3.734;2022-10-23T19:37:42;18.10;99.90
57843;DHT22;43673;51.058;3.734;2022-10-23T19:40:28;18.20;99.90
57843;DHT22;43673;51.058;3.734;2022-10-23T19:42:54;18.10;99.90
57843;DHT22;43673;51.058;3.734;2022-10-23T19:52:14;18.10;99.90
57843;DHT22;43673;51.058;3.734;2022-10-23T19:54:40;18.00;99.90
57843;DHT22;43673;51.058;3.734;2022-10-23T19:57:14;17.90;99.90
57843;DHT22;43673;51.058;3.734;2022-10-23T20:09:49;17.80;99.90
57843;DHT22;43673;51.058;3.734;2022-10-23T20:12:18;17.60;99.90
57843;DHT22;43673;51.058;3.734;2022-10-23T20:14:43;17.70;99.90
57843;DHT22;43673;51.058;3.734;2022-10-23T20:17:51;17.70;99.90
57843;DHT22;43673;51.058;3.734;2022-10-23T20:20:19;17.80;99.90
57843;DHT22;43673;51.058;3.734;2022-10-23T20:23:20;17.70;99.90
57843;DHT22;43673;51.058;3.734;2022-10-23T20:25:52;17.60;99.90